KLM121 LGMK-LGSK
Flight info
| Callsign | KLM121 |
|---|---|
| Flight time | 0h 51m |
| Altitude | 24000 |
| Route | VARIX L995 KEA N132 ROPOX M749 SIGFO |
| Aircraft | B738/M-SDE2E3FGHIRWXY/LB1 |
Departure
| Time | 2026-05-09 10:37 |
|---|---|
| Airport | Mykonos Island National Airport (LGMK) |
Arrival
| Time | 2026-05-09 11:28 |
|---|---|
| Airport | Skiathos Island National Airport (LGSK) |
| Time | Latitude | Longitude | Altitude | Speed | Heading |
|---|---|---|---|---|---|
| 2026-05-09 10:00 | 37.43484 | 25.34653 | 407 ft | 0 kts | 255° |
| 2026-05-09 10:24 | 37.43484 | 25.34654 | 407 ft | 0 kts | 253° |
| 2026-05-09 10:25 | 37.43484 | 25.34653 | 407 ft | 1 kts | 252° |
| 2026-05-09 10:25 | 37.43468 | 25.34633 | 407 ft | 4 kts | 213° |
| 2026-05-09 10:26 | 37.43445 | 25.34630 | 408 ft | 4 kts | 154° |
| 2026-05-09 10:26 | 37.43444 | 25.34654 | 407 ft | 4 kts | 80° |
| 2026-05-09 10:26 | 37.43447 | 25.34664 | 407 ft | 0 kts | 72° |
| 2026-05-09 10:32 | 37.43449 | 25.34675 | 417 ft | 4 kts | 72° |
| 2026-05-09 10:32 | 37.43475 | 25.34712 | 402 ft | 7 kts | 25° |
| 2026-05-09 10:32 | 37.43521 | 25.34701 | 401 ft | 7 kts | 336° |
| 2026-05-09 10:33 | 37.43566 | 25.34677 | 407 ft | 7 kts | 338° |
| 2026-05-09 10:33 | 37.43615 | 25.34672 | 406 ft | 8 kts | 11° |
| 2026-05-09 10:33 | 37.43679 | 25.34706 | 404 ft | 12 kts | 20° |
| 2026-05-09 10:33 | 37.43770 | 25.34710 | 405 ft | 15 kts | 345° |
| 2026-05-09 10:34 | 37.43876 | 25.34664 | 408 ft | 18 kts | 341° |
| 2026-05-09 10:34 | 37.44173 | 25.34534 | 405 ft | 13 kts | 341° |
| 2026-05-09 10:34 | 37.44257 | 25.34516 | 406 ft | 13 kts | 11° |
| 2026-05-09 10:35 | 37.44312 | 25.34482 | 405 ft | 10 kts | 246° |
| 2026-05-09 10:35 | 37.44261 | 25.34493 | 403 ft | 2 kts | 159° |
| 2026-05-09 10:36 | 37.43972 | 25.34621 | 408 ft | 86 kts | 161° |
| 2026-05-09 10:36 | 37.43170 | 25.34975 | 411 ft | 155 kts | 159° |
| 2026-05-09 10:36 | 37.42036 | 25.35458 | 862 ft | 186 kts | 161° |
| 2026-05-09 10:37 | 37.40752 | 25.35968 | 1708 ft | 200 kts | 165° |
| 2026-05-09 10:37 | 37.39471 | 25.36597 | 2593 ft | 199 kts | 161° |
| 2026-05-09 10:37 | 37.38167 | 25.37205 | 3355 ft | 202 kts | 164° |
| 2026-05-09 10:37 | 37.36829 | 25.37807 | 4042 ft | 206 kts | 164° |
| 2026-05-09 10:38 | 37.35420 | 25.38180 | 4702 ft | 209 kts | 190° |
| 2026-05-09 10:38 | 37.34055 | 25.37609 | 5449 ft | 211 kts | 210° |
| 2026-05-09 10:38 | 37.32988 | 25.36360 | 6162 ft | 214 kts | 242° |
| 2026-05-09 10:38 | 37.32300 | 25.34696 | 7001 ft | 217 kts | 242° |
| 2026-05-09 10:39 | 37.31583 | 25.33007 | 7783 ft | 221 kts | 243° |
| 2026-05-09 10:39 | 37.30852 | 25.31285 | 8597 ft | 225 kts | 243° |
| 2026-05-09 10:39 | 37.30108 | 25.29537 | 9447 ft | 228 kts | 243° |
| 2026-05-09 10:39 | 37.29355 | 25.27766 | 10256 ft | 232 kts | 243° |
| 2026-05-09 10:40 | 37.28591 | 25.25967 | 11032 ft | 234 kts | 244° |
| 2026-05-09 10:40 | 37.27831 | 25.24182 | 11845 ft | 236 kts | 244° |
| 2026-05-09 10:40 | 37.27286 | 25.22252 | 12644 ft | 237 kts | 266° |
| 2026-05-09 10:40 | 37.27463 | 25.20171 | 13291 ft | 251 kts | 285° |
| 2026-05-09 10:41 | 37.28323 | 25.18118 | 13614 ft | 278 kts | 300° |
| 2026-05-09 10:41 | 37.29439 | 25.16088 | 14323 ft | 285 kts | 301° |
| 2026-05-09 10:41 | 37.30579 | 25.14041 | 15172 ft | 287 kts | 301° |
| 2026-05-09 10:41 | 37.31720 | 25.11980 | 16057 ft | 288 kts | 300° |
| 2026-05-09 10:42 | 37.32863 | 25.09898 | 16904 ft | 291 kts | 300° |
| 2026-05-09 10:42 | 37.34013 | 25.07792 | 17752 ft | 294 kts | 300° |
| 2026-05-09 10:42 | 37.35174 | 25.05658 | 18564 ft | 297 kts | 300° |
| 2026-05-09 10:42 | 37.36321 | 25.03491 | 19297 ft | 298 kts | 295° |
| 2026-05-09 10:43 | 37.37138 | 25.01057 | 19638 ft | 312 kts | 286° |
| 2026-05-09 10:43 | 37.37845 | 24.98376 | 19788 ft | 333 kts | 285° |
| 2026-05-09 10:43 | 37.38572 | 24.95518 | 19923 ft | 353 kts | 285° |
| 2026-05-09 10:43 | 37.39341 | 24.92495 | 20048 ft | 372 kts | 286° |
| 2026-05-09 10:44 | 37.40155 | 24.89334 | 20220 ft | 387 kts | 286° |
| 2026-05-09 10:44 | 37.41000 | 24.86091 | 20627 ft | 393 kts | 286° |
| 2026-05-09 10:44 | 37.41860 | 24.82818 | 21217 ft | 395 kts | 286° |
| 2026-05-09 10:44 | 37.42727 | 24.79532 | 21801 ft | 396 kts | 286° |
| 2026-05-09 10:45 | 37.43598 | 24.76230 | 22327 ft | 399 kts | 286° |
| 2026-05-09 10:46 | 37.47138 | 24.62769 | 24017 ft | 410 kts | 286° |
| 2026-05-09 10:46 | 37.48034 | 24.59349 | 24036 ft | 413 kts | 286° |
| 2026-05-09 10:46 | 37.48934 | 24.55911 | 24048 ft | 414 kts | 286° |
| 2026-05-09 10:46 | 37.49833 | 24.52472 | 24036 ft | 413 kts | 286° |
| 2026-05-09 10:47 | 37.50729 | 24.49040 | 24042 ft | 412 kts | 286° |
| 2026-05-09 10:47 | 37.51608 | 24.45664 | 24047 ft | 411 kts | 286° |
| 2026-05-09 10:47 | 37.52500 | 24.42240 | 24049 ft | 411 kts | 286° |
| 2026-05-09 10:47 | 37.53390 | 24.38815 | 24049 ft | 412 kts | 286° |
| 2026-05-09 10:48 | 37.54292 | 24.35394 | 24057 ft | 411 kts | 288° |
| 2026-05-09 10:48 | 37.55577 | 24.32166 | 24041 ft | 415 kts | 300° |
| 2026-05-09 10:48 | 37.57315 | 24.29254 | 24072 ft | 417 kts | 307° |
| 2026-05-09 10:48 | 37.59370 | 24.26649 | 24043 ft | 423 kts | 316° |
| 2026-05-09 10:49 | 37.61774 | 24.24470 | 24056 ft | 426 kts | 320° |
| 2026-05-09 10:49 | 37.64230 | 24.22376 | 24046 ft | 426 kts | 321° |
| 2026-05-09 10:49 | 37.66692 | 24.20293 | 24045 ft | 426 kts | 321° |
| 2026-05-09 10:49 | 37.69149 | 24.18205 | 24067 ft | 426 kts | 320° |
| 2026-05-09 10:50 | 37.71601 | 24.16105 | 24058 ft | 426 kts | 320° |
| 2026-05-09 10:50 | 37.74050 | 24.13993 | 24038 ft | 426 kts | 320° |
| 2026-05-09 10:50 | 37.76496 | 24.11874 | 24048 ft | 426 kts | 320° |
| 2026-05-09 10:50 | 37.78939 | 24.09750 | 24048 ft | 426 kts | 320° |
| 2026-05-09 10:51 | 37.81382 | 24.07621 | 24049 ft | 427 kts | 320° |
| 2026-05-09 10:51 | 37.83828 | 24.05488 | 24048 ft | 427 kts | 320° |
| 2026-05-09 10:51 | 37.86268 | 24.03359 | 24048 ft | 426 kts | 320° |
| 2026-05-09 10:51 | 37.88702 | 24.01234 | 24045 ft | 426 kts | 320° |
| 2026-05-09 10:52 | 37.91142 | 23.99102 | 24052 ft | 426 kts | 320° |
| 2026-05-09 10:52 | 37.93578 | 23.96973 | 24051 ft | 426 kts | 320° |
| 2026-05-09 10:52 | 37.96017 | 23.94838 | 24072 ft | 426 kts | 320° |
| 2026-05-09 10:52 | 37.98459 | 23.92699 | 24038 ft | 427 kts | 320° |
| 2026-05-09 10:53 | 38.00895 | 23.90565 | 23911 ft | 422 kts | 320° |
| 2026-05-09 10:53 | 38.03287 | 23.88470 | 23347 ft | 414 kts | 320° |
| 2026-05-09 10:53 | 38.05637 | 23.86408 | 22706 ft | 407 kts | 320° |
| 2026-05-09 10:53 | 38.07920 | 23.84402 | 22069 ft | 402 kts | 320° |
| 2026-05-09 10:54 | 38.10230 | 23.82369 | 21437 ft | 397 kts | 320° |
| 2026-05-09 10:54 | 38.12486 | 23.80384 | 20809 ft | 392 kts | 320° |
| 2026-05-09 10:54 | 38.14714 | 23.78490 | 20210 ft | 390 kts | 325° |
| 2026-05-09 10:54 | 38.17179 | 23.77022 | 19588 ft | 393 kts | 334° |
| 2026-05-09 10:55 | 38.19800 | 23.76002 | 18961 ft | 395 kts | 342° |
| 2026-05-09 10:55 | 38.22526 | 23.75483 | 18354 ft | 397 kts | 348° |
| 2026-05-09 10:55 | 38.25271 | 23.75096 | 17663 ft | 395 kts | 348° |
| 2026-05-09 10:55 | 38.27991 | 23.74734 | 17048 ft | 391 kts | 348° |
| 2026-05-09 10:56 | 38.30688 | 23.74373 | 16434 ft | 388 kts | 348° |
| 2026-05-09 10:56 | 38.33354 | 23.74008 | 15845 ft | 384 kts | 348° |
| 2026-05-09 10:56 | 38.36003 | 23.73637 | 15266 ft | 381 kts | 348° |
| 2026-05-09 10:56 | 38.38628 | 23.73262 | 14693 ft | 378 kts | 348° |
| 2026-05-09 10:57 | 38.41234 | 23.72885 | 14129 ft | 376 kts | 349° |
| 2026-05-09 10:57 | 38.43832 | 23.72508 | 13509 ft | 375 kts | 349° |
| 2026-05-09 10:57 | 38.46420 | 23.72130 | 12889 ft | 373 kts | 349° |
| 2026-05-09 10:57 | 38.48989 | 23.71755 | 12284 ft | 371 kts | 349° |
| 2026-05-09 10:58 | 38.51541 | 23.71383 | 11735 ft | 367 kts | 349° |
| 2026-05-09 10:58 | 38.54074 | 23.71013 | 11155 ft | 366 kts | 349° |
| 2026-05-09 10:58 | 38.55735 | 23.70771 | 11011 ft | 358 kts | 349° |
| 2026-05-09 10:58 | 38.58162 | 23.70420 | 10853 ft | 345 kts | 349° |
| 2026-05-09 10:59 | 38.61255 | 23.69970 | 10654 ft | 330 kts | 349° |
| 2026-05-09 10:59 | 38.63502 | 23.69643 | 10495 ft | 320 kts | 349° |
| 2026-05-09 10:59 | 38.65684 | 23.69324 | 10384 ft | 311 kts | 349° |
| 2026-05-09 10:59 | 38.67801 | 23.69012 | 10237 ft | 302 kts | 349° |
| 2026-05-09 11:00 | 38.69195 | 23.68809 | 10137 ft | 294 kts | 350° |
| 2026-05-09 11:00 | 38.71166 | 23.68524 | 10051 ft | 283 kts | 348° |
| 2026-05-09 11:00 | 38.73115 | 23.68234 | 9788 ft | 282 kts | 348° |
| 2026-05-09 11:00 | 38.75052 | 23.67946 | 9496 ft | 278 kts | 348° |
| 2026-05-09 11:01 | 38.76968 | 23.67662 | 9197 ft | 276 kts | 348° |
| 2026-05-09 11:01 | 38.78856 | 23.67383 | 8901 ft | 271 kts | 348° |
| 2026-05-09 11:01 | 38.80713 | 23.67109 | 8620 ft | 266 kts | 348° |
| 2026-05-09 11:01 | 38.82539 | 23.66840 | 8350 ft | 263 kts | 348° |
| 2026-05-09 11:02 | 38.84348 | 23.66572 | 8063 ft | 261 kts | 348° |
| 2026-05-09 11:02 | 38.86154 | 23.66304 | 7813 ft | 263 kts | 348° |
| 2026-05-09 11:02 | 38.87978 | 23.66033 | 7567 ft | 264 kts | 349° |
| 2026-05-09 11:02 | 38.89799 | 23.65765 | 7285 ft | 262 kts | 349° |
| 2026-05-09 11:03 | 38.91586 | 23.65503 | 6999 ft | 253 kts | 349° |
| 2026-05-09 11:03 | 38.93312 | 23.65250 | 6734 ft | 246 kts | 349° |
| 2026-05-09 11:03 | 38.95000 | 23.65001 | 6485 ft | 243 kts | 349° |
| 2026-05-09 11:03 | 38.96676 | 23.64753 | 6230 ft | 242 kts | 349° |
| 2026-05-09 11:04 | 38.98349 | 23.64506 | 5969 ft | 242 kts | 349° |
| 2026-05-09 11:04 | 39.00022 | 23.64259 | 5713 ft | 242 kts | 349° |
| 2026-05-09 11:04 | 39.01692 | 23.64012 | 5458 ft | 242 kts | 349° |
| 2026-05-09 11:04 | 39.03348 | 23.63769 | 5199 ft | 235 kts | 349° |
| 2026-05-09 11:05 | 39.04924 | 23.63538 | 4946 ft | 227 kts | 349° |
| 2026-05-09 11:05 | 39.06463 | 23.63312 | 4705 ft | 219 kts | 349° |
| 2026-05-09 11:05 | 39.07871 | 23.62764 | 4455 ft | 208 kts | 322° |
| 2026-05-09 11:05 | 39.08902 | 23.61504 | 4281 ft | 204 kts | 303° |
| 2026-05-09 11:06 | 39.09499 | 23.59871 | 4109 ft | 202 kts | 281° |
| 2026-05-09 11:06 | 39.09384 | 23.58122 | 3869 ft | 199 kts | 244° |
| 2026-05-09 11:06 | 39.08605 | 23.56664 | 3452 ft | 200 kts | 229° |
| 2026-05-09 11:06 | 39.07585 | 23.55434 | 2981 ft | 202 kts | 219° |
| 2026-05-09 11:07 | 39.06445 | 23.54399 | 2672 ft | 200 kts | 213° |
| 2026-05-09 11:07 | 39.05253 | 23.53470 | 2412 ft | 201 kts | 210° |
| 2026-05-09 11:07 | 39.04034 | 23.52595 | 2156 ft | 197 kts | 208° |
| 2026-05-09 11:07 | 39.02902 | 23.51760 | 2027 ft | 177 kts | 217° |
| 2026-05-09 11:08 | 39.02198 | 23.50482 | 1979 ft | 183 kts | 250° |
| 2026-05-09 11:08 | 39.02091 | 23.48846 | 1920 ft | 188 kts | 280° |
| 2026-05-09 11:08 | 39.02676 | 23.47364 | 1854 ft | 189 kts | 314° |
| 2026-05-09 11:08 | 39.03812 | 23.46567 | 1797 ft | 190 kts | 351° |
| 2026-05-09 11:09 | 39.05123 | 23.46672 | 1775 ft | 188 kts | 11° |
| 2026-05-09 11:09 | 39.06358 | 23.47009 | 1686 ft | 172 kts | 13° |
| 2026-05-09 11:09 | 39.07437 | 23.47319 | 1656 ft | 151 kts | 13° |
| 2026-05-09 11:09 | 39.08489 | 23.47563 | 1621 ft | 155 kts | 9° |
| 2026-05-09 11:10 | 39.09528 | 23.47762 | 1554 ft | 145 kts | 8° |
| 2026-05-09 11:10 | 39.10504 | 23.47919 | 1272 ft | 141 kts | 7° |
| 2026-05-09 11:10 | 39.11490 | 23.48047 | 1041 ft | 140 kts | 6° |
| 2026-05-09 11:10 | 39.12443 | 23.48207 | 837 ft | 138 kts | 12° |
| 2026-05-09 11:11 | 39.13397 | 23.48508 | 666 ft | 143 kts | 15° |
| 2026-05-09 11:11 | 39.14346 | 23.48880 | 483 ft | 142 kts | 20° |
| 2026-05-09 11:11 | 39.15268 | 23.49291 | 404 ft | 142 kts | 19° |
| 2026-05-09 11:11 | 39.16258 | 23.49723 | 428 ft | 153 kts | 19° |
| 2026-05-09 11:12 | 39.17225 | 23.50140 | 833 ft | 141 kts | 19° |
| 2026-05-09 11:12 | 39.18223 | 23.50538 | 936 ft | 158 kts | 18° |
| 2026-05-09 11:12 | 39.19295 | 23.50917 | 1099 ft | 168 kts | 13° |
| 2026-05-09 11:12 | 39.20478 | 23.51259 | 1199 ft | 180 kts | 13° |
| 2026-05-09 11:13 | 39.21740 | 23.51617 | 1346 ft | 189 kts | 12° |
| 2026-05-09 11:13 | 39.23020 | 23.51976 | 1424 ft | 190 kts | 12° |
| 2026-05-09 11:13 | 39.24323 | 23.52341 | 1465 ft | 192 kts | 12° |
| 2026-05-09 11:13 | 39.25634 | 23.52708 | 1545 ft | 193 kts | 12° |
| 2026-05-09 11:14 | 39.26948 | 23.53077 | 1643 ft | 193 kts | 12° |
| 2026-05-09 11:14 | 39.28262 | 23.53446 | 1727 ft | 193 kts | 12° |
| 2026-05-09 11:14 | 39.29576 | 23.53814 | 1808 ft | 195 kts | 12° |
| 2026-05-09 11:14 | 39.30903 | 23.54187 | 1890 ft | 195 kts | 12° |
| 2026-05-09 11:15 | 39.32266 | 23.54568 | 2028 ft | 207 kts | 11° |
| 2026-05-09 11:15 | 39.33686 | 23.54969 | 2180 ft | 212 kts | 12° |
| 2026-05-09 11:15 | 39.35126 | 23.55379 | 2406 ft | 213 kts | 11° |
| 2026-05-09 11:15 | 39.36563 | 23.55789 | 2606 ft | 216 kts | 16° |
| 2026-05-09 11:16 | 39.37786 | 23.56920 | 2764 ft | 220 kts | 60° |
| 2026-05-09 11:16 | 39.38081 | 23.58791 | 2923 ft | 219 kts | 103° |
| 2026-05-09 11:16 | 39.37326 | 23.60443 | 3057 ft | 217 kts | 147° |
| 2026-05-09 11:16 | 39.35969 | 23.61216 | 3261 ft | 214 kts | 163° |
| 2026-05-09 11:17 | 39.34525 | 23.61640 | 3432 ft | 213 kts | 181° |
| 2026-05-09 11:17 | 39.33047 | 23.61683 | 3620 ft | 213 kts | 179° |
| 2026-05-09 11:17 | 39.31566 | 23.61816 | 3827 ft | 213 kts | 179° |
| 2026-05-09 11:17 | 39.30080 | 23.61966 | 3984 ft | 216 kts | 179° |
| 2026-05-09 11:18 | 39.28566 | 23.61836 | 4009 ft | 221 kts | 193° |
| 2026-05-09 11:18 | 39.27037 | 23.61465 | 4005 ft | 225 kts | 193° |
| 2026-05-09 11:18 | 39.25491 | 23.61115 | 4006 ft | 227 kts | 192° |
| 2026-05-09 11:18 | 39.23926 | 23.60776 | 4005 ft | 229 kts | 192° |
| 2026-05-09 11:19 | 39.22350 | 23.60443 | 4007 ft | 231 kts | 192° |
| 2026-05-09 11:19 | 39.20757 | 23.60115 | 4001 ft | 232 kts | 191° |
| 2026-05-09 11:19 | 39.19158 | 23.59792 | 4007 ft | 234 kts | 191° |
| 2026-05-09 11:19 | 39.17544 | 23.59464 | 3994 ft | 235 kts | 191° |
| 2026-05-09 11:20 | 39.15979 | 23.59148 | 3976 ft | 220 kts | 192° |
| 2026-05-09 11:20 | 39.14535 | 23.58857 | 3984 ft | 207 kts | 192° |
| 2026-05-09 11:20 | 39.13199 | 23.58417 | 3972 ft | 191 kts | 208° |
| 2026-05-09 11:20 | 39.12053 | 23.57651 | 3876 ft | 182 kts | 210° |
| 2026-05-09 11:21 | 39.10969 | 23.56943 | 3852 ft | 170 kts | 210° |
| 2026-05-09 11:21 | 39.09927 | 23.56264 | 3771 ft | 164 kts | 209° |
| 2026-05-09 11:21 | 39.08916 | 23.55605 | 3633 ft | 162 kts | 209° |
| 2026-05-09 11:21 | 39.07925 | 23.54959 | 3545 ft | 157 kts | 209° |
| 2026-05-09 11:22 | 39.06968 | 23.54335 | 3467 ft | 152 kts | 209° |
| 2026-05-09 11:22 | 39.06036 | 23.53727 | 3393 ft | 148 kts | 209° |
| 2026-05-09 11:22 | 39.05132 | 23.53139 | 3332 ft | 143 kts | 209° |
| 2026-05-09 11:22 | 39.04255 | 23.52567 | 3221 ft | 143 kts | 209° |
| 2026-05-09 11:23 | 39.03336 | 23.51967 | 2978 ft | 151 kts | 208° |
| 2026-05-09 11:23 | 39.02485 | 23.51171 | 2833 ft | 153 kts | 232° |
| 2026-05-09 11:23 | 39.02040 | 23.49937 | 2732 ft | 154 kts | 259° |
| 2026-05-09 11:23 | 39.02096 | 23.48566 | 2611 ft | 156 kts | 286° |
| 2026-05-09 11:24 | 39.02644 | 23.47360 | 2494 ft | 159 kts | 314° |
| 2026-05-09 11:24 | 39.03582 | 23.46617 | 2378 ft | 161 kts | 344° |
| 2026-05-09 11:24 | 39.04682 | 23.46574 | 2303 ft | 158 kts | 9° |
| 2026-05-09 11:24 | 39.05767 | 23.46860 | 2167 ft | 158 kts | 12° |
| 2026-05-09 11:25 | 39.06834 | 23.47165 | 2093 ft | 157 kts | 13° |
| 2026-05-09 11:25 | 39.07892 | 23.47467 | 2045 ft | 154 kts | 13° |
| 2026-05-09 11:25 | 39.08936 | 23.47761 | 1970 ft | 153 kts | 12° |
| 2026-05-09 11:25 | 39.09978 | 23.47956 | 1850 ft | 146 kts | 6° |
| 2026-05-09 11:26 | 39.10975 | 23.48028 | 1456 ft | 148 kts | 4° |
| 2026-05-09 11:26 | 39.12000 | 23.48130 | 1166 ft | 147 kts | 10° |
| 2026-05-09 11:26 | 39.12985 | 23.48362 | 918 ft | 142 kts | 14° |
| 2026-05-09 11:26 | 39.13947 | 23.48714 | 652 ft | 146 kts | 18° |
| 2026-05-09 11:27 | 39.14922 | 23.49123 | 492 ft | 148 kts | 19° |
| 2026-05-09 11:27 | 39.15889 | 23.49564 | 317 ft | 149 kts | 18° |
| 2026-05-09 11:27 | 39.16873 | 23.49987 | 70 ft | 146 kts | 18° |
| 2026-05-09 11:27 | 39.17660 | 23.50334 | 39 ft | 69 kts | 18° |
| 2026-05-09 11:28 | 39.17890 | 23.50435 | 40 ft | 15 kts | 3° |
| 2026-05-09 11:28 | 39.17920 | 23.50377 | 41 ft | 0 kts | 261° |
| 2026-05-09 11:28 | 39.17920 | 23.50376 | 41 ft | 0 kts | 260° |
| 2026-05-09 11:28 | 39.17919 | 23.50369 | 41 ft | 0 kts | 258° |
| 2026-05-09 11:29 | 39.17918 | 23.50366 | 41 ft | 3 kts | 260° |
| 2026-05-09 11:29 | 39.17931 | 23.50323 | 43 ft | 5 kts | 298° |
| 2026-05-09 11:29 | 39.17945 | 23.50281 | 49 ft | 4 kts | 289° |
| 2026-05-09 11:30 | 39.17951 | 23.50258 | 50 ft | 1 kts | 289° |
| 2026-05-09 11:30 | 39.17952 | 23.50256 | 48 ft | 0 kts | 289° |